Terminal Aerodrome Forecast
Issued by NWS

Home | Current Version | Previous Version | Text Only | Print | Product List | Glossary On
Versions: 1 2 3 4 5 6 7 8 9 10 11 12 13 14 15 16 17 18
000
FTUS43 KIND 292300 AAA
TAFLAF
TAF AMD
KLAF 292343Z 3000/3024 17007KT P6SM VCTS SCT035CB BKN060
      TEMPO 3000/3001 18020G33KT 2SM TSRA BKN035CB
     FM300300 17005KT P6SM SCT040 SCT120 BKN200
     FM300900 18006KT 6SM BR VCTS BKN040CB
     FM301500 21012G20KT 6SM -SHRA VCTS BKN040CB
      AMD LTD TO CLD VIS AND WIND 3001/3013=

USA.gov is the U.S. government's official web portal to all federal, state and local government web resources and services.